createdAt,value
2017-02-08T00:00:03.972Z,926.33
2017-02-08T00:00:18.549Z,926.4
2017-02-08T00:00:33.144Z,926.4
2017-02-08T00:00:47.788Z,926.35
2017-02-08T00:01:02.345Z,926.34
2017-02-08T00:01:16.900Z,926.35
2017-02-08T00:01:31.477Z,926.35
2017-02-08T00:01:46.023Z,926.33
2017-02-08T00:02:00.652Z,926.33
2017-02-08T00:02:15.280Z,926.34
2017-02-08T00:02:29.900Z,926.31
2017-02-08T00:02:44.506Z,926.3
2017-02-08T00:02:59.089Z,926.27
2017-02-08T00:03:13.665Z,926.3
2017-02-08T00:03:28.252Z,926.32
2017-02-08T00:03:42.809Z,926.29
2017-02-08T00:03:57.425Z,926.29
2017-02-08T00:04:12.063Z,926.31
2017-02-08T00:04:26.841Z,926.28
2017-02-08T00:04:41.455Z,926.28
2017-02-08T00:04:56.035Z,926.24
2017-02-08T00:05:10.601Z,926.25
2017-02-08T00:05:25.154Z,926.24
2017-02-08T00:05:39.734Z,926.28
2017-02-08T00:05:54.240Z,926.26
2017-02-08T00:06:08.802Z,926.26
2017-02-08T00:06:23.344Z,926.27
2017-02-08T00:06:37.966Z,926.26
2017-02-08T00:06:52.472Z,926.26
2017-02-08T00:07:07.090Z,926.25
2017-02-08T00:07:21.659Z,926.32
2017-02-08T00:07:36.216Z,926.29
2017-02-08T00:07:50.771Z,926.26
2017-02-08T00:08:05.294Z,926.29
2017-02-08T00:08:19.862Z,926.29
2017-02-08T00:08:34.449Z,926.28
2017-02-08T00:08:49.058Z,926.3
2017-02-08T00:09:03.610Z,926.33
2017-02-08T00:09:18.148Z,926.31
2017-02-08T00:09:32.760Z,926.33
2017-02-08T00:09:47.332Z,926.28
2017-02-08T00:10:01.888Z,926.32
2017-02-08T00:10:16.409Z,926.33
2017-02-08T00:10:30.964Z,926.33
2017-02-08T00:10:45.529Z,926.35
2017-02-08T00:11:00.097Z,926.37
2017-02-08T00:11:14.679Z,926.35
2017-02-08T00:11:29.274Z,926.37
2017-02-08T00:11:43.852Z,926.36
2017-02-08T00:11:58.407Z,926.37
2017-02-08T00:12:12.930Z,926.38
2017-02-08T00:12:27.465Z,926.36
2017-02-08T00:12:42.211Z,926.33
2017-02-08T00:12:56.753Z,926.38
2017-02-08T00:13:11.312Z,926.31
2017-02-08T00:13:25.883Z,926.35
2017-02-08T00:13:40.507Z,926.33
2017-02-08T00:13:55.098Z,926.36
2017-02-08T00:14:09.672Z,926.39
2017-02-08T00:14:24.224Z,926.38
2017-02-08T00:14:38.798Z,926.37
2017-02-08T00:14:53.344Z,926.41
2017-02-08T00:15:07.907Z,926.4
2017-02-08T00:15:22.529Z,926.39
2017-02-08T00:15:37.090Z,926.39
2017-02-08T00:15:51.601Z,926.4
2017-02-08T00:16:06.190Z,926.42
2017-02-08T00:16:20.706Z,926.42
2017-02-08T00:16:35.285Z,926.38
2017-02-08T00:16:49.896Z,926.42
2017-02-08T00:17:04.467Z,926.43
2017-02-08T00:17:19.085Z,926.46
2017-02-08T00:17:33.577Z,926.43
2017-02-08T00:17:48.065Z,926.46
2017-02-08T00:18:02.594Z,926.44
2017-02-08T00:18:17.087Z,926.47
2017-02-08T00:18:31.599Z,926.46
2017-02-08T00:18:46.124Z,926.46
2017-02-08T00:19:00.702Z,926.44
2017-02-08T00:19:15.245Z,926.45
2017-02-08T00:19:29.832Z,926.44
2017-02-08T00:19:44.339Z,926.44
2017-02-08T00:19:58.879Z,926.44
2017-02-08T00:20:13.395Z,926.49
2017-02-08T00:20:27.946Z,926.46
2017-02-08T00:20:42.483Z,926.48
2017-02-08T00:20:57.018Z,926.47
2017-02-08T00:21:11.568Z,926.46
2017-02-08T00:21:26.149Z,926.45
2017-02-08T00:21:40.720Z,926.47
2017-02-08T00:21:55.308Z,926.5
2017-02-08T00:22:09.809Z,926.48
2017-02-08T00:22:24.498Z,926.48
2017-02-08T00:22:39.100Z,926.46
2017-02-08T00:22:53.654Z,926.48
2017-02-08T00:23:08.188Z,926.49
2017-02-08T00:23:22.815Z,926.51
2017-02-08T00:23:37.455Z,926.44
2017-02-08T00:23:52.041Z,926.48
2017-02-08T00:24:06.531Z,926.47
2017-02-08T00:24:21.175Z,926.51
2017-02-08T00:24:35.766Z,926.49
2017-02-08T00:24:50.329Z,926.49
2017-02-08T00:25:04.896Z,926.58
2017-02-08T00:25:19.468Z,926.5
2017-02-08T00:25:34.111Z,926.5
2017-02-08T00:25:48.797Z,926.5
2017-02-08T00:26:03.299Z,926.49
2017-02-08T00:26:17.856Z,926.5
2017-02-08T00:26:32.476Z,926.5
2017-02-08T00:26:47.018Z,926.52
2017-02-08T00:27:01.570Z,926.53
2017-02-08T00:27:16.123Z,926.55
2017-02-08T00:27:30.698Z,926.55
2017-02-08T00:27:45.450Z,926.55
2017-02-08T00:28:00.027Z,926.56
2017-02-08T00:28:14.563Z,926.52
2017-02-08T00:28:29.103Z,926.55
2017-02-08T00:28:43.651Z,926.56
2017-02-08T00:28:58.243Z,926.56
2017-02-08T00:29:12.844Z,926.57
2017-02-08T00:29:27.428Z,926.59
2017-02-08T00:29:42.089Z,926.59
2017-02-08T00:29:56.637Z,926.57
2017-02-08T00:30:11.286Z,926.56
2017-02-08T00:30:25.916Z,926.58
2017-02-08T00:30:40.473Z,926.58
2017-02-08T00:30:55.053Z,926.57
2017-02-08T00:31:09.632Z,926.59
2017-02-08T00:31:24.154Z,926.6
2017-02-08T00:31:38.747Z,926.63
2017-02-08T00:31:53.338Z,926.62
2017-02-08T00:32:07.980Z,926.63
2017-02-08T00:32:22.511Z,926.62
2017-02-08T00:32:37.053Z,926.62
2017-02-08T00:32:51.669Z,926.57
2017-02-08T00:33:06.226Z,926.63
2017-02-08T00:33:20.834Z,926.63
2017-02-08T00:33:35.413Z,926.67
2017-02-08T00:33:50.033Z,926.64
2017-02-08T00:34:04.609Z,926.69
2017-02-08T00:34:19.194Z,926.68
2017-02-08T00:34:33.761Z,926.66
2017-02-08T00:34:48.283Z,926.68
2017-02-08T00:35:02.877Z,926.68
2017-02-08T00:35:17.426Z,926.64
2017-02-08T00:35:31.989Z,926.66
2017-02-08T00:35:46.588Z,926.68
2017-02-08T00:36:01.107Z,926.67
2017-02-08T00:36:15.672Z,926.71
2017-02-08T00:36:30.236Z,926.64
2017-02-08T00:36:44.772Z,926.65
2017-02-08T00:36:59.378Z,926.69
2017-02-08T00:37:14.135Z,926.65
2017-02-08T00:37:28.718Z,926.67
2017-02-08T00:37:43.316Z,926.68
2017-02-08T00:37:57.906Z,926.68
2017-02-08T00:38:12.555Z,926.66
2017-02-08T00:38:27.122Z,926.66
2017-02-08T00:38:41.716Z,926.67
2017-02-08T00:38:56.252Z,926.66
2017-02-08T00:39:10.802Z,926.67
2017-02-08T00:39:25.388Z,926.66
2017-02-08T00:39:39.934Z,926.64
2017-02-08T00:39:54.532Z,926.72
2017-02-08T00:40:09.153Z,926.67
2017-02-08T00:40:23.749Z,926.69
2017-02-08T00:40:38.297Z,926.65
2017-02-08T00:40:52.862Z,926.66
2017-02-08T00:41:07.517Z,926.66
2017-02-08T00:41:22.112Z,926.63
2017-02-08T00:41:36.731Z,926.67
2017-02-08T00:41:51.266Z,926.67
2017-02-08T00:42:05.881Z,926.65
2017-02-08T00:42:20.431Z,926.67
2017-02-08T00:42:35.023Z,926.7
2017-02-08T00:42:49.839Z,926.64
2017-02-08T00:43:04.438Z,926.67
2017-02-08T00:43:18.957Z,926.68
2017-02-08T00:43:33.540Z,926.67
2017-02-08T00:43:48.068Z,926.66
2017-02-08T00:44:02.493Z,926.68
2017-02-08T00:44:17.040Z,926.67
2017-02-08T00:44:31.624Z,926.71
2017-02-08T00:44:46.118Z,926.68
2017-02-08T00:45:00.635Z,926.7
2017-02-08T00:45:15.255Z,926.66
2017-02-08T00:45:29.826Z,926.68
2017-02-08T00:45:44.488Z,926.75
2017-02-08T00:45:59.126Z,926.67
2017-02-08T00:46:13.689Z,926.68
2017-02-08T00:46:28.310Z,926.68
2017-02-08T00:46:42.901Z,926.69
2017-02-08T00:46:57.534Z,926.67
2017-02-08T00:47:12.142Z,926.67
2017-02-08T00:47:26.722Z,926.71
2017-02-08T00:47:41.278Z,926.7
2017-02-08T00:47:55.857Z,926.67
2017-02-08T00:48:10.412Z,926.69
2017-02-08T00:48:24.957Z,926.71
2017-02-08T00:48:39.525Z,926.73
2017-02-08T00:48:54.147Z,926.7
2017-02-08T00:49:08.751Z,926.72
2017-02-08T00:49:23.284Z,926.7
2017-02-08T00:49:37.818Z,926.71
2017-02-08T00:49:52.397Z,926.7
2017-02-08T00:50:06.944Z,926.71
2017-02-08T00:50:21.664Z,926.72
2017-02-08T00:50:36.259Z,926.73
2017-02-08T00:50:50.846Z,926.71
2017-02-08T00:51:05.434Z,926.68
2017-02-08T00:51:19.892Z,926.73
2017-02-08T00:51:34.474Z,926.71
2017-02-08T00:51:49.002Z,926.7
2017-02-08T00:52:03.539Z,926.72
2017-02-08T00:52:18.113Z,926.68
2017-02-08T00:52:32.653Z,926.72
2017-02-08T00:52:47.227Z,926.67
2017-02-08T00:53:01.763Z,926.66
2017-02-08T00:53:16.291Z,926.67
2017-02-08T00:53:30.886Z,926.67
2017-02-08T00:53:45.459Z,926.66
2017-02-08T00:54:00.050Z,926.64
2017-02-08T00:54:14.652Z,926.65
2017-02-08T00:54:29.189Z,926.63
2017-02-08T00:54:43.777Z,926.62
2017-02-08T00:54:58.339Z,926.63
2017-02-08T00:55:13.004Z,926.62
2017-02-08T00:55:27.586Z,926.61
2017-02-08T00:55:42.131Z,926.64
2017-02-08T00:55:56.691Z,926.64
2017-02-08T00:56:11.265Z,926.64
2017-02-08T00:56:25.851Z,926.63
2017-02-08T00:56:40.450Z,926.68
2017-02-08T00:56:54.988Z,926.64
2017-02-08T00:57:09.657Z,926.64
2017-02-08T00:57:24.270Z,926.64
2017-02-08T00:57:38.837Z,926.65
2017-02-08T00:57:53.410Z,926.64
2017-02-08T00:58:08.244Z,926.68
2017-02-08T00:58:22.765Z,926.64
2017-02-08T00:58:37.342Z,926.64
2017-02-08T00:58:51.905Z,926.62
2017-02-08T00:59:06.483Z,926.69
2017-02-08T00:59:21.065Z,926.68
2017-02-08T00:59:35.616Z,926.67
2017-02-08T00:59:50.200Z,926.66
2017-02-08T01:00:05.437Z,926.64
2017-02-08T01:00:28.887Z,926.64
2017-02-08T01:00:55.908Z,926.66
2017-02-08T01:01:10.896Z,926.67
2017-02-08T01:01:25.413Z,926.65
2017-02-08T01:01:39.990Z,926.66
2017-02-08T01:01:54.590Z,926.64
2017-02-08T01:02:09.172Z,926.64
2017-02-08T01:02:23.740Z,926.63
2017-02-08T01:02:38.229Z,926.65
2017-02-08T01:02:52.801Z,926.63
2017-02-08T01:03:07.416Z,926.59
2017-02-08T01:03:21.955Z,926.69
2017-02-08T01:03:36.514Z,926.59
2017-02-08T01:03:51.127Z,926.66
2017-02-08T01:04:05.718Z,926.64
2017-02-08T01:04:20.467Z,926.64
2017-02-08T01:04:35.033Z,926.69
2017-02-08T01:04:49.593Z,926.63
2017-02-08T01:05:04.165Z,926.62
2017-02-08T01:05:18.665Z,926.61
2017-02-08T01:05:33.240Z,926.64
2017-02-08T01:05:47.976Z,926.61
2017-02-08T01:06:02.617Z,926.58
2017-02-08T01:06:17.175Z,926.66
2017-02-08T01:06:31.687Z,926.63
2017-02-08T01:06:46.277Z,926.66
2017-02-08T01:07:00.857Z,926.66
2017-02-08T01:07:15.419Z,926.64
2017-02-08T01:07:30.021Z,926.63
2017-02-08T01:07:44.574Z,926.63
2017-02-08T01:07:59.257Z,926.63
2017-02-08T01:08:13.863Z,926.65
2017-02-08T01:08:28.466Z,926.67
2017-02-08T01:08:43.016Z,926.64
2017-02-08T01:08:57.603Z,926.64
2017-02-08T01:09:12.133Z,926.62
2017-02-08T01:09:26.753Z,926.6
2017-02-08T01:09:41.388Z,926.61
2017-02-08T01:09:56.023Z,926.62
2017-02-08T01:10:10.563Z,926.66
2017-02-08T01:10:25.156Z,926.59
2017-02-08T01:10:39.670Z,926.58
2017-02-08T01:10:54.251Z,926.53
2017-02-08T01:11:08.816Z,926.61
2017-02-08T01:11:23.354Z,926.58
2017-02-08T01:11:37.857Z,926.6
2017-02-08T01:11:52.314Z,926.62
2017-02-08T01:12:06.853Z,926.64
2017-02-08T01:12:21.448Z,926.64
2017-02-08T01:12:36.005Z,926.61
2017-02-08T01:12:50.565Z,926.63
2017-02-08T01:13:05.280Z,926.69
2017-02-08T01:13:19.735Z,926.69
2017-02-08T01:13:34.249Z,926.64
2017-02-08T01:13:48.821Z,926.61
2017-02-08T01:14:03.349Z,926.67
2017-02-08T01:14:17.824Z,926.63
2017-02-08T01:14:32.359Z,926.66
2017-02-08T01:14:46.906Z,926.62
2017-02-08T01:15:01.463Z,926.61
2017-02-08T01:15:15.958Z,926.68
2017-02-08T01:15:30.456Z,926.64
2017-02-08T01:15:45.005Z,926.63
2017-02-08T01:15:59.513Z,926.64
2017-02-08T01:16:14.055Z,926.61
2017-02-08T01:16:28.621Z,926.63
2017-02-08T01:16:43.121Z,926.66
2017-02-08T01:16:57.660Z,926.69
2017-02-08T01:17:12.153Z,926.71
2017-02-08T01:17:26.633Z,926.68
2017-02-08T01:17:41.178Z,926.71
2017-02-08T01:17:55.732Z,926.71
2017-02-08T01:18:10.390Z,926.72
2017-02-08T01:18:24.911Z,926.76
2017-02-08T01:18:39.473Z,926.7
2017-02-08T01:18:53.968Z,926.81
2017-02-08T01:19:08.486Z,926.75
2017-02-08T01:19:23.036Z,926.71
2017-02-08T01:19:37.574Z,926.72
2017-02-08T01:19:52.146Z,926.7
2017-02-08T01:20:06.735Z,926.79
2017-02-08T01:20:21.305Z,926.75
2017-02-08T01:20:36.087Z,926.71
2017-02-08T01:20:50.616Z,926.8
2017-02-08T01:21:06.040Z,926.73
2017-02-08T01:21:20.597Z,926.74
2017-02-08T01:21:35.142Z,926.76
2017-02-08T01:21:49.700Z,926.77
2017-02-08T01:22:05.091Z,926.74
2017-02-08T01:22:29.831Z,926.76
2017-02-08T01:22:45.569Z,926.78
2017-02-08T01:23:00.159Z,926.8
2017-02-08T01:23:14.894Z,926.77
2017-02-08T01:23:29.356Z,926.76
2017-02-08T01:23:48.423Z,926.81
2017-02-08T01:24:02.980Z,926.78
2017-02-08T01:24:17.601Z,926.81
2017-02-08T01:24:37.965Z,926.82
2017-02-08T01:24:57.435Z,926.8
2017-02-08T01:25:12.021Z,926.77
2017-02-08T01:25:53.346Z,926.89
2017-02-08T01:26:07.927Z,926.81
2017-02-08T01:26:52.125Z,926.87
2017-02-08T01:27:06.686Z,926.86
2017-02-08T01:27:25.108Z,926.87
2017-02-08T01:28:15.601Z,926.85
2017-02-08T01:29:01.913Z,926.85
2017-02-08T01:29:21.985Z,926.88
2017-02-08T01:29:51.512Z,926.82
2017-02-08T01:30:06.080Z,926.86
2017-02-08T01:30:24.936Z,926.91
2017-02-08T01:30:40.821Z,926.87
2017-02-08T01:30:55.379Z,926.88
2017-02-08T01:31:29.059Z,926.85
2017-02-08T01:31:43.636Z,926.85
2017-02-08T01:31:58.159Z,926.85
2017-02-08T01:32:12.621Z,926.87
2017-02-08T01:32:27.164Z,926.86
2017-02-08T01:32:41.704Z,926.84
2017-02-08T01:32:56.314Z,926.86
2017-02-08T01:33:10.812Z,926.81
2017-02-08T01:33:25.392Z,926.88
2017-02-08T01:33:39.949Z,926.88
2017-02-08T01:33:54.478Z,926.85
2017-02-08T01:34:08.993Z,926.86
2017-02-08T01:34:23.543Z,926.85
2017-02-08T01:34:38.109Z,926.88
2017-02-08T01:34:52.664Z,926.87
2017-02-08T01:35:07.188Z,926.82
2017-02-08T01:35:21.639Z,926.84
2017-02-08T01:35:36.180Z,926.84
2017-02-08T01:35:50.675Z,926.88
2017-02-08T01:36:05.269Z,926.85
2017-02-08T01:36:19.788Z,926.81
2017-02-08T01:36:34.334Z,926.81
2017-02-08T01:36:48.806Z,926.86
2017-02-08T01:37:03.382Z,926.82
2017-02-08T01:37:18.100Z,926.83
2017-02-08T01:37:32.628Z,926.84
2017-02-08T01:37:47.179Z,926.8
2017-02-08T01:38:01.762Z,926.82
2017-02-08T01:38:16.370Z,926.82
2017-02-08T01:38:30.943Z,926.85
2017-02-08T01:38:45.448Z,926.86
2017-02-08T01:39:00.022Z,926.83
2017-02-08T01:39:14.578Z,926.83
2017-02-08T01:39:29.082Z,926.88
2017-02-08T01:39:43.609Z,926.87
2017-02-08T01:39:58.169Z,926.87
2017-02-08T01:40:12.831Z,926.88
2017-02-08T01:40:27.349Z,927
2017-02-08T01:40:41.948Z,926.89
2017-02-08T01:40:56.504Z,926.87
2017-02-08T01:41:11.045Z,926.95
2017-02-08T01:41:25.559Z,926.93
2017-02-08T01:41:40.112Z,926.91
2017-02-08T01:41:54.642Z,926.98
2017-02-08T01:42:09.181Z,927
2017-02-08T01:42:23.704Z,926.92
2017-02-08T01:42:38.264Z,926.97
2017-02-08T01:42:52.789Z,926.94
2017-02-08T01:43:07.378Z,926.97
2017-02-08T01:43:22.143Z,926.95
2017-02-08T01:43:36.672Z,926.94
2017-02-08T01:43:51.159Z,926.95
2017-02-08T01:44:05.696Z,926.93
2017-02-08T01:44:20.238Z,926.94
2017-02-08T01:44:34.781Z,926.93
2017-02-08T01:44:49.312Z,926.95
2017-02-08T01:45:03.916Z,926.96
2017-02-08T01:45:18.509Z,926.97
2017-02-08T01:45:33.023Z,926.95
2017-02-08T01:45:47.542Z,927
2017-02-08T01:46:02.074Z,926.98
2017-02-08T01:46:16.573Z,927.01
2017-02-08T01:46:31.167Z,927
2017-02-08T01:46:45.624Z,926.99
2017-02-08T01:47:00.162Z,926.99
2017-02-08T01:47:14.650Z,926.97
2017-02-08T01:47:29.196Z,926.94
2017-02-08T01:47:43.737Z,926.96
2017-02-08T01:47:58.306Z,927.01
2017-02-08T01:48:12.863Z,926.94
2017-02-08T01:48:27.399Z,926.96
2017-02-08T01:48:41.942Z,926.96
2017-02-08T01:48:56.466Z,926.96
2017-02-08T01:49:11.058Z,927.05
2017-02-08T01:49:25.594Z,927.05
2017-02-08T01:49:40.194Z,927
2017-02-08T01:49:54.732Z,927.04
2017-02-08T01:50:09.309Z,926.99
2017-02-08T01:50:23.865Z,926.96
2017-02-08T01:50:38.431Z,926.98
2017-02-08T01:50:53.023Z,926.93
2017-02-08T01:51:07.623Z,926.97
2017-02-08T01:51:22.170Z,927.06
2017-02-08T01:51:36.732Z,926.97
2017-02-08T01:51:51.316Z,926.94
2017-02-08T01:52:05.881Z,927
2017-02-08T01:52:20.434Z,927
2017-02-08T01:52:34.954Z,926.94
2017-02-08T01:52:49.463Z,926.9
2017-02-08T01:53:04.053Z,926.92
2017-02-08T01:53:18.654Z,926.96
2017-02-08T01:53:33.185Z,926.95
2017-02-08T01:53:47.744Z,926.91
2017-02-08T01:54:02.303Z,927.03
2017-02-08T01:54:16.829Z,926.95
2017-02-08T01:54:31.360Z,927.04
2017-02-08T01:54:45.851Z,926.95
2017-02-08T01:55:00.446Z,927.03
2017-02-08T01:55:14.997Z,926.94
2017-02-08T01:55:29.626Z,926.91
2017-02-08T01:55:44.237Z,926.93
2017-02-08T01:55:58.748Z,926.92
2017-02-08T01:56:13.274Z,926.93
2017-02-08T01:56:27.802Z,926.96
2017-02-08T01:56:42.348Z,926.97
2017-02-08T01:56:56.906Z,926.95
2017-02-08T01:57:11.416Z,926.94
2017-02-08T01:57:25.981Z,926.97
2017-02-08T01:57:40.471Z,927.01
2017-02-08T01:57:55.050Z,927.04
2017-02-08T01:58:09.601Z,926.99
2017-02-08T01:58:24.134Z,926.99
2017-02-08T01:58:38.878Z,926.99
2017-02-08T01:58:53.391Z,927.05
2017-02-08T01:59:07.930Z,927.01
2017-02-08T01:59:22.469Z,927
2017-02-08T01:59:37.008Z,926.98
2017-02-08T01:59:51.550Z,927.06
2017-02-08T02:00:06.123Z,927.02
2017-02-08T02:00:20.765Z,927.02
2017-02-08T02:00:35.346Z,926.96
2017-02-08T02:00:49.960Z,927.02
2017-02-08T02:01:04.511Z,927.05
2017-02-08T02:01:19.071Z,927.16
2017-02-08T02:01:33.611Z,927.12
2017-02-08T02:01:48.132Z,927.13
2017-02-08T02:02:02.818Z,927.09
2017-02-08T02:02:17.428Z,927.09
2017-02-08T02:02:32.019Z,927.1
2017-02-08T02:02:46.553Z,927.15
2017-02-08T02:03:01.098Z,927.06
2017-02-08T02:03:15.612Z,927.1
2017-02-08T02:03:30.154Z,927.16
2017-02-08T02:03:44.712Z,927.11
2017-02-08T02:03:59.261Z,927.11
2017-02-08T02:04:13.767Z,927.11
2017-02-08T02:04:28.343Z,927.09
2017-02-08T02:04:42.869Z,927.11
2017-02-08T02:04:57.419Z,927.13
2017-02-08T02:05:11.965Z,927.09
2017-02-08T02:05:26.473Z,927.1
2017-02-08T02:05:41.034Z,927.13
2017-02-08T02:05:55.508Z,927.13
2017-02-08T02:06:10.030Z,927.11
2017-02-08T02:06:24.591Z,927.14
2017-02-08T02:06:39.107Z,927.12
2017-02-08T02:06:53.640Z,927.13
2017-02-08T02:07:08.183Z,927.12
2017-02-08T02:07:22.692Z,927.15
2017-02-08T02:07:37.296Z,927.11
2017-02-08T02:07:51.797Z,927.09
2017-02-08T02:08:06.342Z,927.13
2017-02-08T02:08:20.934Z,927.12
2017-02-08T02:08:35.439Z,927.12
2017-02-08T02:08:49.981Z,927.11
2017-02-08T02:09:04.571Z,927.15
2017-02-08T02:09:19.115Z,927.17
2017-02-08T02:09:33.664Z,927.15
2017-02-08T02:09:48.256Z,927.13
2017-02-08T02:10:02.766Z,927.11
2017-02-08T02:10:17.380Z,927.07
2017-02-08T02:10:31.924Z,927.07
2017-02-08T02:10:46.489Z,927.1
2017-02-08T02:11:01.014Z,927.14
2017-02-08T02:11:15.543Z,927.11
2017-02-08T02:11:30.161Z,927.13
2017-02-08T02:11:44.700Z,927.08
2017-02-08T02:11:59.268Z,927.13
2017-02-08T02:12:13.822Z,927.13
2017-02-08T02:12:28.463Z,927.1
2017-02-08T02:12:43.045Z,927.08
2017-02-08T02:12:57.624Z,927.09
2017-02-08T02:13:12.165Z,927.05
2017-02-08T02:13:26.683Z,927.06
2017-02-08T02:13:41.487Z,927.09
2017-02-08T02:13:56.031Z,927.07
2017-02-08T02:14:10.609Z,927.07
2017-02-08T02:14:25.196Z,927.05
2017-02-08T02:14:39.699Z,927.06
2017-02-08T02:14:54.280Z,927.05
2017-02-08T02:15:08.820Z,927.05
2017-02-08T02:15:23.364Z,927.05
2017-02-08T02:15:37.884Z,927.04
2017-02-08T02:15:52.481Z,927.04
2017-02-08T02:16:07.024Z,927.06
2017-02-08T02:16:21.564Z,927.01
2017-02-08T02:16:36.065Z,927.08
2017-02-08T02:16:50.535Z,927.01
2017-02-08T02:17:05.062Z,926.99
2017-02-08T02:17:19.576Z,927.04
2017-02-08T02:17:34.122Z,927.07
2017-02-08T02:17:48.753Z,927.06
2017-02-08T02:18:03.278Z,927.09
2017-02-08T02:18:17.813Z,927.03
2017-02-08T02:18:32.411Z,927.02
2017-02-08T02:18:46.928Z,927.01
2017-02-08T02:19:01.442Z,927.01
2017-02-08T02:19:16.008Z,927.03
2017-02-08T02:19:30.558Z,927
2017-02-08T02:19:45.097Z,927.01
2017-02-08T02:19:59.595Z,927.01
2017-02-08T02:20:14.036Z,927.04
2017-02-08T02:20:28.598Z,927.01
2017-02-08T02:20:43.153Z,927.03
2017-02-08T02:20:57.740Z,927.02
2017-02-08T02:21:12.311Z,927.07
2017-02-08T02:21:26.853Z,927
2017-02-08T02:21:41.376Z,927.01
2017-02-08T02:21:55.877Z,927.05
2017-02-08T02:22:10.443Z,927.07
2017-02-08T02:22:24.913Z,927.08
2017-02-08T02:22:39.473Z,927.07
2017-02-08T02:22:53.981Z,927.1
2017-02-08T02:23:08.476Z,927.03
2017-02-08T02:23:23.031Z,927.04
2017-02-08T02:23:37.577Z,927.03
2017-02-08T02:23:52.163Z,927.04
2017-02-08T02:24:06.710Z,927.08
2017-02-08T02:24:21.346Z,927.08
2017-02-08T02:24:35.913Z,927.08
2017-02-08T02:24:50.460Z,927.01
2017-02-08T02:25:05.042Z,927.06
2017-02-08T02:25:19.592Z,927.05
2017-02-08T02:25:34.165Z,927.01
2017-02-08T02:25:48.716Z,926.99
2017-02-08T02:26:03.230Z,926.99
2017-02-08T02:26:17.747Z,927
2017-02-08T02:26:32.312Z,926.99
2017-02-08T02:26:46.837Z,926.98
2017-02-08T02:27:01.470Z,926.97
2017-02-08T02:27:16.030Z,926.95
2017-02-08T02:27:30.532Z,926.96
2017-02-08T02:27:45.172Z,926.97
2017-02-08T02:27:59.816Z,926.98
2017-02-08T02:28:14.335Z,926.95
2017-02-08T02:28:28.874Z,926.94
2017-02-08T02:28:43.569Z,926.88
2017-02-08T02:28:58.108Z,926.91
2017-02-08T02:29:12.665Z,926.92
2017-02-08T02:29:27.255Z,926.88
2017-02-08T02:29:41.790Z,926.85
2017-02-08T02:29:56.303Z,926.86
2017-02-08T02:30:10.833Z,926.89
2017-02-08T02:30:25.401Z,926.85
2017-02-08T02:30:40.027Z,926.83
2017-02-08T02:30:54.613Z,926.86
2017-02-08T02:31:09.145Z,926.84
2017-02-08T02:31:23.712Z,926.85
2017-02-08T02:31:38.325Z,926.82
2017-02-08T02:31:52.803Z,926.84
2017-02-08T02:32:07.371Z,926.82
2017-02-08T02:32:21.872Z,926.83
2017-02-08T02:32:36.412Z,926.83
2017-02-08T02:32:50.977Z,926.87
2017-02-08T02:33:05.498Z,926.84
2017-02-08T02:33:20.016Z,926.83
2017-02-08T02:33:34.559Z,926.83
2017-02-08T02:33:49.140Z,926.8
2017-02-08T02:34:03.704Z,926.87
2017-02-08T02:34:18.250Z,926.85
2017-02-08T02:34:32.778Z,926.85
2017-02-08T02:34:47.396Z,926.85
2017-02-08T02:35:01.992Z,926.81
2017-02-08T02:35:16.470Z,926.84
2017-02-08T02:35:31.039Z,926.84
2017-02-08T02:35:45.585Z,926.82
2017-02-08T02:36:00.123Z,926.88
2017-02-08T02:36:14.666Z,926.84
2017-02-08T02:36:29.134Z,926.81
2017-02-08T02:36:43.735Z,926.82
2017-02-08T02:36:58.264Z,926.81
2017-02-08T02:37:12.758Z,926.82
2017-02-08T02:37:27.311Z,926.86
2017-02-08T02:37:41.860Z,926.84
2017-02-08T02:37:56.402Z,926.85
2017-02-08T02:38:10.922Z,926.85
2017-02-08T02:38:25.508Z,926.86
2017-02-08T02:38:40.006Z,926.81
2017-02-08T02:38:54.584Z,926.78
2017-02-08T02:39:09.121Z,926.8
2017-02-08T02:39:23.657Z,926.82
2017-02-08T02:39:38.182Z,926.8
2017-02-08T02:39:52.679Z,926.82
2017-02-08T02:40:07.260Z,926.81
2017-02-08T02:40:21.836Z,926.81
2017-02-08T02:40:36.395Z,926.8
2017-02-08T02:40:50.958Z,926.81
2017-02-08T02:41:05.520Z,926.81
2017-02-08T02:41:20.069Z,926.78
2017-02-08T02:41:34.669Z,926.79
2017-02-08T02:41:49.247Z,926.76
2017-02-08T02:42:03.839Z,926.78
2017-02-08T02:42:18.361Z,926.82
2017-02-08T02:42:32.882Z,926.77
2017-02-08T02:42:47.429Z,926.74
2017-02-08T02:43:01.977Z,926.75
2017-02-08T02:43:16.515Z,926.76
2017-02-08T02:43:31.076Z,926.78
2017-02-08T02:43:45.907Z,926.76
2017-02-08T02:44:00.444Z,926.75
2017-02-08T02:44:15.000Z,926.76
2017-02-08T02:44:29.505Z,926.72
2017-02-08T02:44:44.066Z,926.7
2017-02-08T02:44:58.649Z,926.73
2017-02-08T02:45:13.173Z,926.71
2017-02-08T02:45:27.801Z,926.75
2017-02-08T02:45:42.366Z,926.73
2017-02-08T02:45:56.906Z,926.67
2017-02-08T02:46:11.403Z,926.72
2017-02-08T02:46:25.913Z,926.69
2017-02-08T02:46:40.457Z,926.68
2017-02-08T02:46:55.020Z,926.7
2017-02-08T02:47:09.584Z,926.65
2017-02-08T02:47:24.132Z,926.66
2017-02-08T02:47:38.632Z,926.66
2017-02-08T02:47:53.130Z,926.71
2017-02-08T02:48:07.705Z,926.65
2017-02-08T02:48:22.250Z,926.69
2017-02-08T02:48:36.826Z,926.66
2017-02-08T02:48:51.406Z,926.66
2017-02-08T02:49:05.940Z,926.67
2017-02-08T02:49:20.444Z,926.69
2017-02-08T02:49:35.048Z,926.66
2017-02-08T02:49:49.668Z,926.7
2017-02-08T02:50:04.215Z,926.7
2017-02-08T02:50:18.758Z,926.67
2017-02-08T02:50:33.256Z,926.7
2017-02-08T02:50:47.814Z,926.67
2017-02-08T02:51:02.322Z,926.72
2017-02-08T02:51:16.937Z,926.72
2017-02-08T02:51:31.470Z,926.71
2017-02-08T02:51:46.022Z,926.67
2017-02-08T02:52:00.649Z,926.71
2017-02-08T02:52:15.208Z,926.71
2017-02-08T02:52:29.790Z,926.71
2017-02-08T02:52:44.308Z,926.72
2017-02-08T02:52:58.876Z,926.71
2017-02-08T02:53:13.432Z,926.71
2017-02-08T02:53:28.004Z,926.74
2017-02-08T02:53:42.549Z,926.74
2017-02-08T02:53:57.083Z,926.69
2017-02-08T02:54:11.609Z,926.71
2017-02-08T02:54:26.204Z,926.73
2017-02-08T02:54:40.763Z,926.73
2017-02-08T02:54:55.275Z,926.68
2017-02-08T02:55:09.795Z,926.67
2017-02-08T02:55:24.344Z,926.65
2017-02-08T02:55:38.847Z,926.66
2017-02-08T02:55:53.432Z,926.66
2017-02-08T02:56:08.024Z,926.69
2017-02-08T02:56:22.543Z,926.66
2017-02-08T02:56:37.105Z,926.63
2017-02-08T02:56:51.699Z,926.66
2017-02-08T02:57:06.262Z,926.62
2017-02-08T02:57:20.822Z,926.59
2017-02-08T02:57:35.371Z,926.6
2017-02-08T02:57:49.860Z,926.6
2017-02-08T02:58:04.445Z,926.61
2017-02-08T02:58:18.919Z,926.61
2017-02-08T02:58:33.466Z,926.56
2017-02-08T02:58:47.985Z,926.6
2017-02-08T02:59:02.884Z,926.58
2017-02-08T02:59:17.471Z,926.61
2017-02-08T02:59:32.000Z,926.6
2017-02-08T02:59:46.503Z,926.59
2017-02-08T03:00:00.979Z,926.61
2017-02-08T03:00:15.469Z,926.61
2017-02-08T03:00:30.107Z,926.62
2017-02-08T03:00:44.694Z,926.61
2017-02-08T03:00:59.179Z,926.66
2017-02-08T03:01:13.658Z,926.61
2017-02-08T03:01:28.217Z,926.62
2017-02-08T03:01:42.801Z,926.67
2017-02-08T03:01:57.402Z,926.62
2017-02-08T03:02:11.931Z,926.67
2017-02-08T03:02:26.476Z,926.66
2017-02-08T03:02:41.019Z,926.64
2017-02-08T03:02:55.544Z,926.64
2017-02-08T03:03:10.046Z,926.63
2017-02-08T03:03:24.622Z,926.67
2017-02-08T03:03:39.183Z,926.63
2017-02-08T03:03:53.701Z,926.64
2017-02-08T03:04:08.296Z,926.64
2017-02-08T03:04:22.797Z,926.67
2017-02-08T03:04:37.391Z,926.65
2017-02-08T03:04:51.877Z,926.63
2017-02-08T03:05:06.399Z,926.63
2017-02-08T03:05:20.979Z,926.62
2017-02-08T03:05:35.532Z,926.61
2017-02-08T03:05:50.129Z,926.64
2017-02-08T03:06:04.756Z,926.62